createdAt,value
2022-11-09T00:01:29.643Z,1.77
2022-11-09T00:03:59.356Z,1.80
2022-11-09T00:06:29.946Z,1.60
2022-11-09T00:09:06.857Z,1.60
2022-11-09T00:11:36.745Z,1.80
2022-11-09T00:14:05.337Z,1.80
2022-11-09T00:16:33.855Z,1.83
2022-11-09T00:19:02.245Z,1.80
2022-11-09T00:21:30.641Z,1.83
2022-11-09T00:24:00.503Z,1.70
2022-11-09T00:26:28.982Z,1.80
2022-11-09T00:28:57.647Z,2.47
2022-11-09T00:31:26.390Z,2.00
2022-11-09T00:33:56.321Z,1.40
2022-11-09T00:36:26.787Z,2.00
2022-11-09T00:38:57.080Z,1.83
2022-11-09T00:41:27.778Z,1.97
2022-11-09T00:43:57.416Z,1.73
2022-11-09T00:46:26.193Z,1.83
2022-11-09T00:48:55.891Z,2.17
2022-11-09T00:51:24.602Z,1.70
2022-11-09T00:53:54.779Z,2.10
2022-11-09T00:56:25.767Z,1.40
2022-11-09T00:58:56.121Z,1.53
2022-11-09T01:01:24.888Z,1.37
2022-11-09T01:03:53.387Z,1.67
2022-11-09T01:06:24.465Z,1.60
2022-11-09T01:08:53.679Z,1.73
2022-11-09T01:11:23.353Z,1.47
2022-11-09T01:13:55.635Z,1.53
2022-11-09T01:16:25.182Z,1.50
2022-11-09T01:18:54.864Z,1.57
2022-11-09T01:21:27.022Z,1.53
2022-11-09T01:23:55.904Z,1.60
2022-11-09T01:26:24.665Z,1.10
2022-11-09T01:28:53.082Z,1.30
2022-11-09T01:31:24.000Z,1.50
2022-11-09T01:33:52.729Z,1.37
2022-11-09T01:36:23.838Z,1.27
2022-11-09T01:38:53.151Z,0.90
2022-11-09T01:41:23.791Z,1.70
2022-11-09T01:44:10.079Z,1.80
2022-11-09T01:46:49.012Z,1.63
2022-11-09T01:49:23.555Z,1.50
2022-11-09T01:51:57.349Z,1.30
2022-11-09T01:54:29.553Z,1.27
2022-11-09T01:57:03.587Z,1.60
2022-11-09T01:59:37.345Z,1.57
2022-11-09T02:02:07.409Z,1.53
2022-11-09T02:04:44.429Z,1.93
2022-11-09T02:07:13.319Z,1.73
2022-11-09T02:09:46.578Z,1.67
2022-11-09T02:12:15.331Z,1.63
2022-11-09T02:14:44.360Z,1.17
2022-11-09T02:17:14.194Z,1.23
2022-11-09T02:19:42.675Z,1.53
2022-11-09T02:22:12.662Z,1.80
2022-11-09T02:24:41.261Z,1.80
2022-11-09T02:27:09.911Z,1.30
2022-11-09T02:29:42.902Z,2.10
2022-11-09T02:32:15.395Z,1.10
2022-11-09T02:34:43.989Z,1.77
2022-11-09T02:37:13.920Z,1.67
2022-11-09T02:39:42.351Z,2.20
2022-11-09T02:42:19.931Z,1.47
2022-11-09T02:44:54.067Z,1.73
2022-11-09T02:47:23.138Z,2.00
2022-11-09T02:49:51.578Z,1.77
2022-11-09T02:52:22.979Z,1.67
2022-11-09T02:54:53.034Z,2.37
2022-11-09T02:57:21.586Z,2.00
2022-11-09T02:59:51.330Z,1.33
2022-11-09T03:02:20.055Z,1.53
2022-11-09T03:04:48.474Z,1.97
2022-11-09T03:07:17.002Z,2.10
2022-11-09T03:09:47.313Z,1.30
2022-11-09T03:12:30.672Z,2.30
2022-11-09T03:15:12.068Z,1.50
2022-11-09T03:17:44.620Z,2.20
2022-11-09T03:20:13.257Z,2.03
2022-11-09T03:22:42.730Z,1.70
2022-11-09T03:25:12.755Z,1.80
2022-11-09T03:27:41.702Z,2.20
2022-11-09T03:30:11.679Z,1.43
2022-11-09T03:32:40.512Z,1.50
2022-11-09T03:35:10.421Z,1.30
2022-11-09T03:37:38.971Z,1.97
2022-11-09T03:40:08.647Z,1.57
2022-11-09T03:42:43.932Z,1.73
2022-11-09T03:45:12.396Z,2.23
2022-11-09T03:47:41.830Z,1.70
2022-11-09T03:50:11.491Z,1.27
2022-11-09T03:52:40.736Z,1.47
2022-11-09T03:55:10.060Z,1.50
2022-11-09T03:57:39.863Z,1.77
2022-11-09T04:00:09.923Z,1.83
2022-11-09T04:02:41.377Z,1.80
2022-11-09T04:05:11.328Z,1.83
2022-11-09T04:07:40.244Z,1.73
2022-11-09T04:10:09.598Z,1.83
2022-11-09T04:12:39.434Z,1.20
2022-11-09T04:15:08.584Z,1.60
2022-11-09T04:17:37.248Z,1.37
2022-11-09T04:20:06.419Z,1.60
2022-11-09T04:22:35.339Z,1.37
2022-11-09T04:25:05.019Z,1.40
2022-11-09T04:27:33.453Z,1.73
2022-11-09T04:30:03.215Z,1.50
2022-11-09T04:32:31.669Z,1.50
2022-11-09T04:35:00.747Z,2.20
2022-11-09T04:37:29.153Z,1.63
2022-11-09T04:39:57.559Z,1.43
2022-11-09T04:42:26.013Z,1.57
2022-11-09T04:44:54.426Z,1.53
2022-11-09T04:47:24.323Z,1.80
2022-11-09T04:49:52.697Z,1.67
2022-11-09T04:52:21.149Z,1.47
2022-11-09T04:54:49.502Z,1.47
2022-11-09T04:57:17.966Z,1.00
2022-11-09T04:59:46.340Z,1.50
2022-11-09T05:02:15.308Z,1.40
2022-11-09T05:04:45.048Z,1.20
2022-11-09T05:07:13.558Z,1.10
2022-11-09T05:09:42.016Z,1.00
2022-11-09T05:12:12.263Z,1.30
2022-11-09T05:14:40.741Z,1.23
2022-11-09T05:17:09.732Z,1.13
2022-11-09T05:19:38.126Z,1.53
2022-11-09T05:22:21.780Z,1.57
2022-11-09T05:24:51.688Z,1.90
2022-11-09T05:27:20.118Z,1.50
2022-11-09T05:29:48.524Z,1.60
2022-11-09T05:32:16.964Z,2.33
2022-11-09T05:34:45.401Z,1.90
2022-11-09T05:37:17.468Z,1.43
2022-11-09T05:39:45.905Z,1.53
2022-11-09T05:42:14.308Z,1.53
2022-11-09T05:44:42.719Z,1.30
2022-11-09T05:47:11.187Z,1.80
2022-11-09T05:49:39.580Z,1.63
2022-11-09T05:52:08.043Z,1.63
2022-11-09T05:54:37.807Z,1.70
2022-11-09T05:57:06.265Z,1.75
2022-11-09T05:59:34.726Z,2.33
2022-11-09T06:02:03.191Z,1.47
2022-11-09T06:04:31.672Z,1.53
2022-11-09T06:07:00.187Z,1.90
2022-11-09T06:09:28.616Z,1.17
2022-11-09T06:11:58.422Z,1.77
2022-11-09T06:14:26.883Z,1.83
2022-11-09T06:16:55.387Z,2.43
2022-11-09T06:19:23.806Z,1.70
2022-11-09T06:21:52.198Z,2.07
2022-11-09T06:24:20.645Z,1.67
2022-11-09T06:26:49.075Z,1.70
2022-11-09T06:29:19.708Z,1.47
2022-11-09T06:31:48.936Z,1.83
2022-11-09T06:34:17.334Z,2.23
2022-11-09T06:36:45.787Z,2.13
2022-11-09T06:39:14.439Z,2.03
2022-11-09T06:41:47.267Z,1.77
2022-11-09T06:44:16.185Z,1.73
2022-11-09T06:46:45.915Z,1.80
2022-11-09T06:49:14.375Z,1.80
2022-11-09T06:51:42.780Z,1.90
2022-11-09T06:54:11.155Z,1.87
2022-11-09T06:56:39.564Z,1.53
2022-11-09T06:59:08.857Z,1.40
2022-11-09T07:01:37.592Z,2.00
2022-11-09T07:04:07.427Z,1.57
2022-11-09T07:06:35.836Z,1.60
2022-11-09T07:09:04.279Z,2.10
2022-11-09T07:11:32.700Z,1.57
2022-11-09T07:14:02.666Z,2.53
2022-11-09T07:16:31.677Z,1.90
2022-11-09T07:19:00.538Z,2.33
2022-11-09T07:21:30.278Z,1.90
2022-11-09T07:23:58.661Z,2.73
2022-11-09T07:26:27.383Z,1.60
2022-11-09T07:28:55.767Z,2.30
2022-11-09T07:31:24.264Z,2.03
2022-11-09T07:33:52.701Z,2.07
2022-11-09T07:36:21.845Z,2.13
2022-11-09T07:38:51.776Z,2.27
2022-11-09T07:41:20.142Z,2.60
2022-11-09T07:43:48.544Z,2.07
2022-11-09T07:46:17.288Z,2.37
2022-11-09T07:48:45.699Z,1.67
2022-11-09T07:51:14.111Z,2.60
2022-11-09T07:53:42.599Z,2.37
2022-11-09T07:56:12.610Z,1.73
2022-11-09T07:58:41.030Z,2.43
2022-11-09T08:01:10.357Z,2.23
2022-11-09T08:03:39.025Z,2.47
2022-11-09T08:06:07.479Z,2.23
2022-11-09T08:08:35.912Z,2.63
2022-11-09T08:11:04.475Z,2.17
2022-11-09T08:13:34.290Z,2.57
2022-11-09T08:16:03.277Z,1.70
2022-11-09T08:18:31.805Z,1.80
2022-11-09T08:21:03.180Z,1.80
2022-11-09T08:23:32.168Z,2.10
2022-11-09T08:26:04.894Z,2.50
2022-11-09T08:28:35.810Z,2.17
2022-11-09T08:31:07.055Z,2.07
2022-11-09T08:33:37.508Z,2.40
2022-11-09T08:36:11.206Z,2.10
2022-11-09T08:38:39.994Z,2.17
2022-11-09T08:41:13.221Z,1.90
2022-11-09T08:43:43.661Z,2.17
2022-11-09T08:46:12.612Z,2.53
2022-11-09T08:48:41.134Z,2.20
2022-11-09T08:51:09.607Z,2.40
2022-11-09T08:53:37.998Z,2.03
2022-11-09T08:56:07.747Z,3.07
2022-11-09T08:58:37.318Z,2.60
2022-11-09T09:01:15.537Z,1.80
2022-11-09T09:03:46.680Z,2.63
2022-11-09T09:06:15.150Z,2.43
2022-11-09T09:08:43.562Z,2.00
2022-11-09T09:11:12.444Z,2.57
2022-11-09T09:13:43.622Z,2.23
2022-11-09T09:16:16.158Z,2.47
2022-11-09T09:18:44.882Z,2.43
2022-11-09T09:21:13.449Z,2.17
2022-11-09T09:23:41.949Z,2.17
2022-11-09T09:26:10.574Z,2.23
2022-11-09T09:28:39.087Z,2.23
2022-11-09T09:31:07.694Z,1.97
2022-11-09T09:33:37.631Z,2.43
2022-11-09T09:36:06.633Z,2.47
2022-11-09T09:38:35.150Z,2.97
2022-11-09T09:41:05.384Z,2.00
2022-11-09T09:43:42.808Z,2.10
2022-11-09T09:46:18.987Z,1.93
2022-11-09T09:48:54.294Z,1.90
2022-11-09T09:51:37.031Z,1.97
2022-11-09T09:54:12.132Z,2.00
2022-11-09T09:56:42.847Z,2.13
2022-11-09T09:59:19.262Z,1.63
2022-11-09T10:01:49.603Z,2.27
2022-11-09T10:04:22.023Z,1.83
2022-11-09T10:07:01.489Z,2.13
2022-11-09T10:09:41.456Z,2.30
2022-11-09T10:12:25.853Z,1.80
2022-11-09T10:15:09.959Z,1.90
2022-11-09T10:17:46.682Z,2.33
2022-11-09T10:20:32.141Z,2.27
2022-11-09T10:23:17.336Z,2.07
2022-11-09T10:26:03.739Z,1.53
2022-11-09T10:29:09.224Z,1.97
2022-11-09T10:31:33.490Z,1.90
2022-11-09T10:34:09.799Z,2.30
2022-11-09T10:36:44.805Z,2.03
2022-11-09T10:39:16.118Z,2.37
2022-11-09T10:42:03.323Z,2.17
2022-11-09T10:44:50.296Z,2.43
2022-11-09T10:47:48.683Z,1.60
2022-11-09T10:50:38.771Z,2.20
2022-11-09T10:53:28.954Z,1.73
2022-11-09T10:56:21.385Z,1.67
2022-11-09T10:59:44.536Z,2.00
2022-11-09T11:02:47.065Z,2.47
2022-11-09T11:05:35.444Z,1.80
2022-11-09T11:08:28.432Z,2.43
2022-11-09T11:11:33.799Z,2.20
2022-11-09T11:14:29.170Z,2.20
2022-11-09T11:17:24.107Z,2.23
2022-11-09T11:20:27.867Z,1.73
2022-11-09T11:23:17.613Z,2.20
2022-11-09T11:26:26.144Z,2.23
2022-11-09T11:29:36.047Z,1.53
2022-11-09T11:32:25.451Z,1.83
2022-11-09T11:35:18.028Z,2.00
2022-11-09T11:38:25.639Z,1.30
2022-11-09T11:41:37.804Z,1.43
2022-11-09T11:44:39.052Z,2.30
2022-11-09T11:47:29.298Z,1.90
2022-11-09T11:50:31.858Z,2.20
2022-11-09T11:53:43.215Z,1.40
2022-11-09T11:56:35.975Z,1.67
2022-11-09T11:59:44.339Z,2.20
2022-11-09T12:02:57.656Z,2.03
2022-11-09T12:06:17.468Z,1.67
2022-11-09T12:09:15.522Z,1.73
2022-11-09T12:12:17.749Z,1.80
2022-11-09T12:15:24.161Z,1.90
2022-11-09T12:18:21.101Z,2.10
2022-11-09T12:21:15.957Z,2.40
2022-11-09T12:24:14.278Z,2.77
2022-11-09T12:27:34.524Z,1.90
2022-11-09T19:21:51.212Z,2.40
2022-11-09T19:24:39.109Z,2.47
2022-11-09T19:27:28.782Z,2.97
2022-11-09T19:30:16.437Z,2.00
2022-11-09T19:33:03.858Z,2.57
2022-11-09T19:36:15.165Z,3.93
2022-11-09T19:39:01.298Z,4.70
2022-11-09T19:41:49.037Z,5.77
2022-11-09T19:44:36.355Z,4.30
2022-11-09T19:47:24.017Z,3.00
2022-11-09T19:50:14.734Z,2.10
2022-11-09T19:53:05.147Z,1.90
2022-11-09T19:55:59.821Z,2.63
2022-11-09T19:58:50.413Z,2.50
2022-11-09T20:01:38.188Z,2.63
2022-11-09T20:04:26.526Z,2.40
2022-11-09T20:07:14.155Z,2.13
2022-11-09T20:10:03.425Z,2.60
2022-11-09T20:12:52.390Z,2.47
2022-11-09T20:15:40.174Z,2.50
2022-11-09T20:18:27.517Z,2.20
2022-11-09T20:21:14.833Z,2.57
2022-11-09T20:24:02.474Z,2.97
2022-11-09T20:26:49.914Z,3.37
2022-11-09T20:29:38.869Z,2.57
2022-11-09T20:32:27.231Z,3.77
2022-11-09T20:35:15.882Z,2.90
2022-11-09T20:38:03.635Z,2.97
2022-11-09T20:40:55.666Z,2.97
2022-11-09T20:43:43.002Z,2.90
2022-11-09T20:46:36.227Z,3.20
2022-11-09T20:49:24.050Z,2.37
2022-11-09T20:52:11.845Z,2.80
2022-11-09T20:54:58.816Z,2.87
2022-11-09T20:57:45.936Z,2.50
2022-11-09T21:00:34.098Z,2.57
2022-11-09T21:03:23.286Z,2.97
2022-11-09T21:06:12.507Z,2.53
2022-11-09T21:09:01.396Z,2.20
2022-11-09T21:12:05.782Z,2.30
2022-11-09T21:14:54.366Z,1.93
2022-11-09T21:17:42.801Z,1.90
2022-11-09T21:20:31.406Z,2.80
2022-11-09T21:23:36.422Z,2.63
2022-11-09T21:26:42.239Z,2.07
2022-11-09T21:29:46.759Z,3.00
2022-11-09T21:32:33.953Z,2.13
2022-11-09T21:35:21.499Z,3.20
2022-11-09T21:38:10.458Z,2.40
2022-11-09T21:41:05.371Z,3.03
2022-11-09T21:43:58.791Z,2.47
2022-11-09T21:46:46.166Z,3.58
2022-11-09T21:49:33.590Z,2.73
2022-11-09T21:52:21.603Z,1.60
2022-11-09T21:55:11.013Z,2.33
2022-11-09T21:57:58.234Z,3.10
2022-11-09T22:00:45.538Z,2.70
2022-11-09T22:03:33.555Z,3.30
2022-11-09T22:06:20.743Z,4.37
2022-11-09T22:09:09.220Z,4.30
2022-11-09T22:12:14.946Z,3.10
2022-11-09T22:15:34.062Z,4.37
2022-11-09T22:18:35.011Z,2.80
2022-11-09T22:21:23.651Z,3.77
2022-11-09T22:24:11.568Z,4.70
2022-11-09T22:27:00.610Z,3.20
2022-11-09T22:29:48.120Z,3.20
2022-11-09T22:32:35.303Z,3.87
2022-11-09T22:35:22.473Z,3.40
2022-11-09T22:38:09.898Z,3.10
2022-11-09T22:41:01.379Z,4.13
2022-11-09T22:43:49.622Z,4.23
2022-11-09T22:46:36.796Z,3.17
2022-11-09T22:49:24.278Z,3.00
2022-11-09T22:52:11.852Z,3.43
2022-11-09T22:54:59.054Z,3.57
2022-11-09T22:57:46.073Z,3.67
2022-11-09T23:00:34.692Z,2.70
2022-11-09T23:03:22.669Z,3.50
2022-11-09T23:06:11.739Z,3.30
2022-11-09T23:08:58.934Z,3.57
2022-11-09T23:11:45.996Z,3.43
2022-11-09T23:14:50.298Z,2.70
2022-11-09T23:17:56.265Z,4.00
2022-11-09T23:20:44.038Z,3.80
2022-11-09T23:23:30.929Z,4.47
2022-11-09T23:26:18.442Z,3.57
2022-11-09T23:29:05.562Z,3.93
2022-11-09T23:31:52.887Z,3.83
2022-11-09T23:34:41.495Z,3.97
2022-11-09T23:37:28.372Z,5.37
2022-11-09T23:40:15.395Z,3.43
2022-11-09T23:43:03.028Z,3.60
2022-11-09T23:45:50.039Z,4.03
2022-11-09T23:48:37.282Z,3.50
2022-11-09T23:51:25.778Z,4.23
2022-11-09T23:54:12.795Z,5.27
2022-11-09T23:56:59.777Z,4.40
2022-11-09T23:59:46.962Z,4.33
